Terminal Aerodrome Forecast
Issued by NWS Chicago, IL

Home | Current Version | Previous Version | Text Only | Print | Product List | Glossary Off
Versions: 1 2 3 4 5 6 7 8 9 10 11 12 13 14 15 16 17 18 19 20 21 22 23

589
FTUS43 KLOT 190344 AAB
TAFRFD
TAF AMD
KRFD 190344Z 1904/1924 34010KT 3SM -SN BR OVC007
      TEMPO 1904/1906 1SM -SN BR
     FM190600 34011KT P6SM BKN015
     FM191300 34010KT P6SM SCT030=

USA.gov is the U.S. government's official web portal to all federal, state and local government web resources and services.